sensor_id;sensor_type;location;lat;lon;timestamp;temperature;humidity
73509;SHT30;61750;55.036;73.312;2023-04-15T00:00:33;-7.41;56.39
73509;SHT30;61750;55.036;73.312;2023-04-15T00:03:00;-7.39;56.12
73509;SHT30;61750;55.036;73.312;2023-04-15T00:05:37;-7.35;56.47
73509;SHT30;61750;55.036;73.312;2023-04-15T00:08:03;-7.28;56.69
73509;SHT30;61750;55.036;73.312;2023-04-15T00:10:37;-7.32;56.38
73509;SHT30;61750;55.036;73.312;2023-04-15T00:13:13;-7.28;56.18
73509;SHT30;61750;55.036;73.312;2023-04-15T00:15:45;-7.22;56.14
73509;SHT30;61750;55.036;73.312;2023-04-15T00:18:12;-7.27;56.01
73509;SHT30;61750;55.036;73.312;2023-04-15T00:20:38;-7.24;55.97
73509;SHT30;61750;55.036;73.312;2023-04-15T00:23:04;-7.27;55.80
73509;SHT30;61750;55.036;73.312;2023-04-15T00:25:37;-7.25;55.97
73509;SHT30;61750;55.036;73.312;2023-04-15T00:28:13;-7.18;56.10
73509;SHT30;61750;55.036;73.312;2023-04-15T00:30:39;-7.21;56.07
73509;SHT30;61750;55.036;73.312;2023-04-15T00:33:16;-7.18;56.05
73509;SHT30;61750;55.036;73.312;2023-04-15T00:35:52;-7.17;56.00
73509;SHT30;61750;55.036;73.312;2023-04-15T00:38:18;-7.12;56.38
73509;SHT30;61750;55.036;73.312;2023-04-15T00:40:45;-7.18;55.85
73509;SHT30;61750;55.036;73.312;2023-04-15T00:43:11;-7.18;55.96
73509;SHT30;61750;55.036;73.312;2023-04-15T00:45:42;-7.14;56.05
73509;SHT30;61750;55.036;73.312;2023-04-15T00:48:09;-7.15;55.79
73509;SHT30;61750;55.036;73.312;2023-04-15T00:50:37;-7.11;55.97
73509;SHT30;61750;55.036;73.312;2023-04-15T00:53:03;-7.14;55.24
73509;SHT30;61750;55.036;73.312;2023-04-15T00:55:37;-7.18;55.20
73509;SHT30;61750;55.036;73.312;2023-04-15T00:58:03;-7.17;55.73
73509;SHT30;61750;55.036;73.312;2023-04-15T01:00:29;-7.07;55.93
73509;SHT30;61750;55.036;73.312;2023-04-15T01:02:56;-7.10;54.96
73509;SHT30;61750;55.036;73.312;2023-04-15T01:05:37;-7.05;54.98
73509;SHT30;61750;55.036;73.312;2023-04-15T01:08:04;-7.04;55.08
73509;SHT30;61750;55.036;73.312;2023-04-15T01:10:37;-7.03;55.55
73509;SHT30;61750;55.036;73.312;2023-04-15T01:13:04;-7.00;55.36
73509;SHT30;61750;55.036;73.312;2023-04-15T01:15:37;-7.04;55.30
73509;SHT30;61750;55.036;73.312;2023-04-15T01:18:08;-7.10;55.13
73509;SHT30;61750;55.036;73.312;2023-04-15T01:20:37;-7.12;54.92
73509;SHT30;61750;55.036;73.312;2023-04-15T01:23:08;-7.08;55.41
73509;SHT30;61750;55.036;73.312;2023-04-15T01:25:37;-7.01;55.44
73509;SHT30;61750;55.036;73.312;2023-04-15T01:28:03;-6.89;55.50
73509;SHT30;61750;55.036;73.312;2023-04-15T01:30:34;-6.83;54.74
73509;SHT30;61750;55.036;73.312;2023-04-15T01:33:00;-6.80;54.24
73509;SHT30;61750;55.036;73.312;2023-04-15T01:35:37;-6.80;54.25
73509;SHT30;61750;55.036;73.312;2023-04-15T01:38:08;-6.77;53.61
73509;SHT30;61750;55.036;73.312;2023-04-15T01:40:37;-6.77;53.69
73509;SHT30;61750;55.036;73.312;2023-04-15T01:43:03;-6.69;54.13
73509;SHT30;61750;55.036;73.312;2023-04-15T01:45:37;-6.65;53.38
73509;SHT30;61750;55.036;73.312;2023-04-15T01:48:03;-6.57;53.40
73509;SHT30;61750;55.036;73.312;2023-04-15T01:50:37;-6.46;53.34
73509;SHT30;61750;55.036;73.312;2023-04-15T01:53:03;-6.26;53.72
73509;SHT30;61750;55.036;73.312;2023-04-15T01:55:37;-6.15;52.95
73509;SHT30;61750;55.036;73.312;2023-04-15T01:58:03;-6.16;52.19
73509;SHT30;61750;55.036;73.312;2023-04-15T02:00:29;-6.13;51.98
73509;SHT30;61750;55.036;73.312;2023-04-15T02:02:58;-5.94;51.98
73509;SHT30;61750;55.036;73.312;2023-04-15T02:05:37;-5.81;51.62
73509;SHT30;61750;55.036;73.312;2023-04-15T02:08:08;-5.87;51.41
73509;SHT30;61750;55.036;73.312;2023-04-15T02:10:37;-5.85;51.86
73509;SHT30;61750;55.036;73.312;2023-04-15T02:13:04;-5.78;51.74
73509;SHT30;61750;55.036;73.312;2023-04-15T02:15:37;-5.77;50.97
73509;SHT30;61750;55.036;73.312;2023-04-15T02:18:03;-5.71;51.19
73509;SHT30;61750;55.036;73.312;2023-04-15T02:20:37;-5.54;51.30
73509;SHT30;61750;55.036;73.312;2023-04-15T02:23:04;-5.43;50.81
73509;SHT30;61750;55.036;73.312;2023-04-15T02:25:37;-5.31;50.68
73509;SHT30;61750;55.036;73.312;2023-04-15T02:28:06;-5.33;50.07
73509;SHT30;61750;55.036;73.312;2023-04-15T02:30:32;-5.30;49.90
73509;SHT30;61750;55.036;73.312;2023-04-15T02:33:02;-5.30;49.66
73509;SHT30;61750;55.036;73.312;2023-04-15T02:35:37;-5.26;49.23
73509;SHT30;61750;55.036;73.312;2023-04-15T02:38:07;-5.26;49.40
73509;SHT30;61750;55.036;73.312;2023-04-15T02:40:37;-5.17;49.40
73509;SHT30;61750;55.036;73.312;2023-04-15T02:43:12;-5.10;49.10
73509;SHT30;61750;55.036;73.312;2023-04-15T02:45:38;-5.10;48.76
73509;SHT30;61750;55.036;73.312;2023-04-15T02:48:08;-5.24;47.81
73509;SHT30;61750;55.036;73.312;2023-04-15T02:50:37;-5.27;48.69
73509;SHT30;61750;55.036;73.312;2023-04-15T02:53:07;-5.24;48.06
73509;SHT30;61750;55.036;73.312;2023-04-15T02:55:37;-5.05;48.56
73509;SHT30;61750;55.036;73.312;2023-04-15T02:58:03;-4.95;47.37
73509;SHT30;61750;55.036;73.312;2023-04-15T03:00:29;-4.91;46.96
73509;SHT30;61750;55.036;73.312;2023-04-15T03:03:04;-4.81;47.49
73509;SHT30;61750;55.036;73.312;2023-04-15T03:05:37;-4.65;46.99
73509;SHT30;61750;55.036;73.312;2023-04-15T03:08:04;-4.52;46.61
73509;SHT30;61750;55.036;73.312;2023-04-15T03:10:37;-4.28;46.12
73509;SHT30;61750;55.036;73.312;2023-04-15T03:13:03;-4.35;44.82
73509;SHT30;61750;55.036;73.312;2023-04-15T03:15:37;-4.52;44.47
73509;SHT30;61750;55.036;73.312;2023-04-15T03:18:04;-4.64;44.42
73509;SHT30;61750;55.036;73.312;2023-04-15T03:20:37;-4.69;43.82
73509;SHT30;61750;55.036;73.312;2023-04-15T03:23:09;-4.78;43.57
73509;SHT30;61750;55.036;73.312;2023-04-15T03:25:37;-4.64;44.50
73509;SHT30;61750;55.036;73.312;2023-04-15T03:28:09;-4.61;43.37
73509;SHT30;61750;55.036;73.312;2023-04-15T03:30:35;-4.41;42.96
73509;SHT30;61750;55.036;73.312;2023-04-15T03:33:01;-4.24;43.25
73509;SHT30;61750;55.036;73.312;2023-04-15T03:35:37;-4.13;42.39
73509;SHT30;61750;55.036;73.312;2023-04-15T03:38:03;-4.10;41.70
73509;SHT30;61750;55.036;73.312;2023-04-15T03:40:40;-4.14;41.52
73509;SHT30;61750;55.036;73.312;2023-04-15T03:43:06;-3.89;41.82
73509;SHT30;61750;55.036;73.312;2023-04-15T03:45:37;-3.53;41.21
73509;SHT30;61750;55.036;73.312;2023-04-15T03:48:03;-3.43;41.41
73509;SHT30;61750;55.036;73.312;2023-04-15T03:50:37;-3.51;40.69
73509;SHT30;61750;55.036;73.312;2023-04-15T03:53:14;-3.25;40.92
73509;SHT30;61750;55.036;73.312;2023-04-15T03:55:40;-3.19;40.02
73509;SHT30;61750;55.036;73.312;2023-04-15T03:58:17;-3.09;40.44
73509;SHT30;61750;55.036;73.312;2023-04-15T04:00:43;-3.07;40.28
73509;SHT30;61750;55.036;73.312;2023-04-15T04:03:10;-3.08;39.66
73509;SHT30;61750;55.036;73.312;2023-04-15T04:05:38;-3.19;39.01
73509;SHT30;61750;55.036;73.312;2023-04-15T04:08:16;-3.02;39.74
73509;SHT30;61750;55.036;73.312;2023-04-15T04:10:44;-2.68;39.36
73509;SHT30;61750;55.036;73.312;2023-04-15T04:13:11;-2.50;39.24
73509;SHT30;61750;55.036;73.312;2023-04-15T04:15:39;-2.67;37.98
73509;SHT30;61750;55.036;73.312;2023-04-15T04:18:10;-2.94;37.40
73509;SHT30;61750;55.036;73.312;2023-04-15T04:20:37;-2.94;37.89
73509;SHT30;61750;55.036;73.312;2023-04-15T04:23:03;-2.64;38.72
73509;SHT30;61750;55.036;73.312;2023-04-15T04:25:37;-2.77;37.66
73509;SHT30;61750;55.036;73.312;2023-04-15T04:28:14;-2.94;37.61
73509;SHT30;61750;55.036;73.312;2023-04-15T04:30:40;-2.99;38.44
73509;SHT30;61750;55.036;73.312;2023-04-15T04:33:06;-3.21;38.28
73509;SHT30;61750;55.036;73.312;2023-04-15T04:35:40;-3.05;39.12
73509;SHT30;61750;55.036;73.312;2023-04-15T04:38:11;-2.97;38.72
73509;SHT30;61750;55.036;73.312;2023-04-15T04:40:37;-3.01;39.16
73509;SHT30;61750;55.036;73.312;2023-04-15T04:43:03;-3.08;39.79
73509;SHT30;61750;55.036;73.312;2023-04-15T04:45:37;-2.95;39.90
73509;SHT30;61750;55.036;73.312;2023-04-15T04:48:09;-2.70;38.14
73509;SHT30;61750;55.036;73.312;2023-04-15T04:50:37;-2.66;38.37
73509;SHT30;61750;55.036;73.312;2023-04-15T04:53:03;-2.42;38.84
73509;SHT30;61750;55.036;73.312;2023-04-15T04:55:37;-2.32;39.09
73509;SHT30;61750;55.036;73.312;2023-04-15T04:58:04;-2.12;38.45
73509;SHT30;61750;55.036;73.312;2023-04-15T05:00:31;-1.95;37.88
73509;SHT30;61750;55.036;73.312;2023-04-15T05:02:57;-1.95;37.29
73509;SHT30;61750;55.036;73.312;2023-04-15T05:05:37;-2.06;37.57
73509;SHT30;61750;55.036;73.312;2023-04-15T05:08:06;-2.06;37.41
73509;SHT30;61750;55.036;73.312;2023-04-15T05:10:48;-1.72;36.87
73509;SHT30;61750;55.036;73.312;2023-04-15T05:13:14;-1.81;36.26
73509;SHT30;61750;55.036;73.312;2023-04-15T05:15:40;-1.96;36.69
73509;SHT30;61750;55.036;73.312;2023-04-15T05:18:08;-1.92;36.90
73509;SHT30;61750;55.036;73.312;2023-04-15T05:20:37;-1.93;36.59
73509;SHT30;61750;55.036;73.312;2023-04-15T05:23:03;-2.03;36.79
73509;SHT30;61750;55.036;73.312;2023-04-15T05:25:37;-1.98;37.00
73509;SHT30;61750;55.036;73.312;2023-04-15T05:28:03;-1.89;36.57
73509;SHT30;61750;55.036;73.312;2023-04-15T05:30:29;-1.67;35.88
73509;SHT30;61750;55.036;73.312;2023-04-15T05:32:56;-1.83;35.03
73509;SHT30;61750;55.036;73.312;2023-04-15T05:35:37;-1.83;36.00
73509;SHT30;61750;55.036;73.312;2023-04-15T05:38:03;-1.45;35.71
73509;SHT30;61750;55.036;73.312;2023-04-15T05:40:37;-1.68;35.50
73509;SHT30;61750;55.036;73.312;2023-04-15T05:43:04;-1.37;34.80
73509;SHT30;61750;55.036;73.312;2023-04-15T05:45:37;-1.13;33.80
73509;SHT30;61750;55.036;73.312;2023-04-15T05:48:03;-1.21;35.20
73509;SHT30;61750;55.036;73.312;2023-04-15T05:50:39;-1.18;35.76
73509;SHT30;61750;55.036;73.312;2023-04-15T05:53:05;-1.25;36.28
73509;SHT30;61750;55.036;73.312;2023-04-15T05:55:37;-0.74;35.45
73509;SHT30;61750;55.036;73.312;2023-04-15T05:58:03;-0.62;34.38
73509;SHT30;61750;55.036;73.312;2023-04-15T06:00:29;-0.25;35.71
73509;SHT30;61750;55.036;73.312;2023-04-15T06:02:56;-0.28;33.16
73509;SHT30;61750;55.036;73.312;2023-04-15T06:05:37;-0.58;33.96
73509;SHT30;61750;55.036;73.312;2023-04-15T06:08:03;-0.49;34.21
73509;SHT30;61750;55.036;73.312;2023-04-15T06:10:37;-0.32;33.23
73509;SHT30;61750;55.036;73.312;2023-04-15T06:13:03;-0.11;34.26
73509;SHT30;61750;55.036;73.312;2023-04-15T06:15:37;0.02;34.74
73509;SHT30;61750;55.036;73.312;2023-04-15T06:18:03;-0.08;34.53
73509;SHT30;61750;55.036;73.312;2023-04-15T06:20:37;-0.12;34.46
73509;SHT30;61750;55.036;73.312;2023-04-15T06:23:03;0.30;33.77
73509;SHT30;61750;55.036;73.312;2023-04-15T06:25:40;0.01;34.08
73509;SHT30;61750;55.036;73.312;2023-04-15T06:28:06;-0.35;33.75
73509;SHT30;61750;55.036;73.312;2023-04-15T06:30:33;0.15;34.54
73509;SHT30;61750;55.036;73.312;2023-04-15T06:33:01;0.05;33.37
73509;SHT30;61750;55.036;73.312;2023-04-15T06:35:37;0.12;32.76
73509;SHT30;61750;55.036;73.312;2023-04-15T06:38:04;0.13;33.04
73509;SHT30;61750;55.036;73.312;2023-04-15T06:44:05;0.19;33.34
73509;SHT30;61750;55.036;73.312;2023-04-15T06:46:36;0.15;32.30
73509;SHT30;61750;55.036;73.312;2023-04-15T06:49:02;0.43;34.43
73509;SHT30;61750;55.036;73.312;2023-04-15T06:51:30;0.85;33.28
73509;SHT30;61750;55.036;73.312;2023-04-15T06:53:57;0.68;32.86
73509;SHT30;61750;55.036;73.312;2023-04-15T06:56:23;1.17;33.04
73509;SHT30;61750;55.036;73.312;2023-04-15T06:58:59;1.56;32.22
73509;SHT30;61750;55.036;73.312;2023-04-15T07:01:31;1.67;31.55
73509;SHT30;61750;55.036;73.312;2023-04-15T07:03:58;1.67;31.54
73509;SHT30;61750;55.036;73.312;2023-04-15T07:06:24;1.87;32.00
73509;SHT30;61750;55.036;73.312;2023-04-15T07:09:01;1.44;31.87
73509;SHT30;61750;55.036;73.312;2023-04-15T07:11:28;1.12;32.26
73509;SHT30;61750;55.036;73.312;2023-04-15T07:13:54;1.32;30.99
73509;SHT30;61750;55.036;73.312;2023-04-15T07:16:20;1.11;30.98
73509;SHT30;61750;55.036;73.312;2023-04-15T07:18:47;1.15;31.86
73509;SHT30;61750;55.036;73.312;2023-04-15T07:21:13;1.52;31.68
73509;SHT30;61750;55.036;73.312;2023-04-15T07:23:41;2.16;31.85
73509;SHT30;61750;55.036;73.312;2023-04-15T07:26:11;2.20;31.47
73509;SHT30;61750;55.036;73.312;2023-04-15T07:28:37;2.09;31.50
73509;SHT30;61750;55.036;73.312;2023-04-15T07:31:03;2.06;31.32
73509;SHT30;61750;55.036;73.312;2023-04-15T07:33:32;1.79;30.88
73509;SHT30;61750;55.036;73.312;2023-04-15T07:36:03;1.44;32.27
73509;SHT30;61750;55.036;73.312;2023-04-15T07:38:32;1.87;33.14
73509;SHT30;61750;55.036;73.312;2023-04-15T07:40:58;2.41;32.93
73509;SHT30;61750;55.036;73.312;2023-04-15T07:43:27;2.96;32.72
73509;SHT30;61750;55.036;73.312;2023-04-15T07:45:58;2.98;30.84
73509;SHT30;61750;55.036;73.312;2023-04-15T07:48:25;2.80;31.55
73509;SHT30;61750;55.036;73.312;2023-04-15T07:50:51;2.98;30.90
73509;SHT30;61750;55.036;73.312;2023-04-15T07:53:17;2.96;31.04
73509;SHT30;61750;55.036;73.312;2023-04-15T07:55:43;2.66;30.40
73509;SHT30;61750;55.036;73.312;2023-04-15T07:58:10;2.98;31.23
73509;SHT30;61750;55.036;73.312;2023-04-15T08:00:36;3.29;30.87
73509;SHT30;61750;55.036;73.312;2023-04-15T08:03:03;3.39;30.58
73509;SHT30;61750;55.036;73.312;2023-04-15T08:05:37;3.19;30.05
73509;SHT30;61750;55.036;73.312;2023-04-15T08:08:03;3.02;29.63
73509;SHT30;61750;55.036;73.312;2023-04-15T08:10:37;3.16;31.32
73509;SHT30;61750;55.036;73.312;2023-04-15T08:13:03;3.32;29.91
73509;SHT30;61750;55.036;73.312;2023-04-15T08:15:37;3.39;29.55
73509;SHT30;61750;55.036;73.312;2023-04-15T08:18:03;3.30;29.80
73509;SHT30;61750;55.036;73.312;2023-04-15T08:20:37;3.15;28.37
73509;SHT30;61750;55.036;73.312;2023-04-15T08:23:13;3.63;29.91
73509;SHT30;61750;55.036;73.312;2023-04-15T08:25:39;3.40;29.59
73509;SHT30;61750;55.036;73.312;2023-04-15T08:28:08;3.47;29.39
73509;SHT30;61750;55.036;73.312;2023-04-15T08:30:34;3.33;29.83
73509;SHT30;61750;55.036;73.312;2023-04-15T08:33:01;3.56;29.56
73509;SHT30;61750;55.036;73.312;2023-04-15T08:35:37;3.76;29.22
73509;SHT30;61750;55.036;73.312;2023-04-15T08:38:03;4.01;29.87
73509;SHT30;61750;55.036;73.312;2023-04-15T08:40:41;4.46;28.12
73509;SHT30;61750;55.036;73.312;2023-04-15T08:43:32;5.19;28.64
73509;SHT30;61750;55.036;73.312;2023-04-15T08:45:59;5.55;29.42
73509;SHT30;61750;55.036;73.312;2023-04-15T08:48:30;5.55;28.43
73509;SHT30;61750;55.036;73.312;2023-04-15T08:50:58;5.54;29.61
73509;SHT30;61750;55.036;73.312;2023-04-15T08:53:28;5.85;28.12
73509;SHT30;61750;55.036;73.312;2023-04-15T08:55:56;5.68;27.82
73509;SHT30;61750;55.036;73.312;2023-04-15T08:58:23;5.41;28.66
73509;SHT30;61750;55.036;73.312;2023-04-15T09:00:51;5.63;28.06
73509;SHT30;61750;55.036;73.312;2023-04-15T09:03:19;5.53;28.73
73509;SHT30;61750;55.036;73.312;2023-04-15T09:05:46;5.29;27.92
73509;SHT30;61750;55.036;73.312;2023-04-15T09:08:14;5.39;26.86
73509;SHT30;61750;55.036;73.312;2023-04-15T09:10:40;5.78;28.09
73509;SHT30;61750;55.036;73.312;2023-04-15T09:13:17;6.49;27.46
73509;SHT30;61750;55.036;73.312;2023-04-15T09:15:52;6.52;27.61
73509;SHT30;61750;55.036;73.312;2023-04-15T09:18:33;7.00;26.73
73509;SHT30;61750;55.036;73.312;2023-04-15T09:21:10;6.90;26.79
73509;SHT30;61750;55.036;73.312;2023-04-15T09:23:50;7.23;27.11
73509;SHT30;61750;55.036;73.312;2023-04-15T09:26:19;7.45;26.96
73509;SHT30;61750;55.036;73.312;2023-04-15T09:28:50;7.54;25.98
73509;SHT30;61750;55.036;73.312;2023-04-15T09:31:29;7.45;25.35
73509;SHT30;61750;55.036;73.312;2023-04-15T09:33:56;8.06;25.56
73509;SHT30;61750;55.036;73.312;2023-04-15T09:36:22;8.20;25.55
73509;SHT30;61750;55.036;73.312;2023-04-15T09:38:57;7.75;24.58
73509;SHT30;61750;55.036;73.312;2023-04-15T09:41:27;7.59;24.52
73509;SHT30;61750;55.036;73.312;2023-04-15T09:43:53;7.65;25.09
73509;SHT30;61750;55.036;73.312;2023-04-15T09:46:19;7.72;25.03
73509;SHT30;61750;55.036;73.312;2023-04-15T09:48:46;8.42;24.77
73509;SHT30;61750;55.036;73.312;2023-04-15T09:51:12;8.44;25.67
73509;SHT30;61750;55.036;73.312;2023-04-15T09:53:41;9.03;24.67
73509;SHT30;61750;55.036;73.312;2023-04-15T09:56:16;9.49;25.09
73509;SHT30;61750;55.036;73.312;2023-04-15T09:58:55;8.98;23.36
73509;SHT30;61750;55.036;73.312;2023-04-15T10:01:21;9.18;24.05
73509;SHT30;61750;55.036;73.312;2023-04-15T10:03:48;9.28;23.60
73509;SHT30;61750;55.036;73.312;2023-04-15T10:06:15;9.56;23.95
73509;SHT30;61750;55.036;73.312;2023-04-15T10:08:41;9.90;22.52
73509;SHT30;61750;55.036;73.312;2023-04-15T10:11:08;9.86;22.91
73509;SHT30;61750;55.036;73.312;2023-04-15T10:13:35;9.73;24.41
73509;SHT30;61750;55.036;73.312;2023-04-15T10:16:09;10.20;23.50
73509;SHT30;61750;55.036;73.312;2023-04-15T10:19:03;10.16;22.48
73509;SHT30;61750;55.036;73.312;2023-04-15T10:21:35;10.51;22.41
73509;SHT30;61750;55.036;73.312;2023-04-15T10:24:02;10.47;22.68
73509;SHT30;61750;55.036;73.312;2023-04-15T10:26:30;10.97;23.59
73509;SHT30;61750;55.036;73.312;2023-04-15T10:28:56;10.34;23.17
73509;SHT30;61750;55.036;73.312;2023-04-15T10:31:26;10.24;22.73
73509;SHT30;61750;55.036;73.312;2023-04-15T10:33:55;10.34;22.89
73509;SHT30;61750;55.036;73.312;2023-04-15T10:36:26;9.83;22.17
73509;SHT30;61750;55.036;73.312;2023-04-15T10:44:36;10.37;23.46
73509;SHT30;61750;55.036;73.312;2023-04-15T10:47:16;11.02;22.56
73509;SHT30;61750;55.036;73.312;2023-04-15T10:49:56;10.51;23.00
73509;SHT30;61750;55.036;73.312;2023-04-15T10:52:33;11.01;20.96
73509;SHT30;61750;55.036;73.312;2023-04-15T10:55:37;11.26;21.08
73509;SHT30;61750;55.036;73.312;2023-04-15T10:58:14;11.98;20.54
73509;SHT30;61750;55.036;73.312;2023-04-15T11:00:49;12.30;20.20
73509;SHT30;61750;55.036;73.312;2023-04-15T11:03:35;12.61;20.16
73509;SHT30;61750;55.036;73.312;2023-04-15T11:06:03;12.38;20.39
73509;SHT30;61750;55.036;73.312;2023-04-15T11:08:56;12.47;19.85
73509;SHT30;61750;55.036;73.312;2023-04-15T11:12:03;12.40;20.53
73509;SHT30;61750;55.036;73.312;2023-04-15T11:14:40;12.47;20.72
73509;SHT30;61750;55.036;73.312;2023-04-15T11:17:08;11.40;20.58
73509;SHT30;61750;55.036;73.312;2023-04-15T11:19:35;10.82;21.67
73509;SHT30;61750;55.036;73.312;2023-04-15T11:22:10;10.72;22.24
73509;SHT30;61750;55.036;73.312;2023-04-15T11:24:46;11.38;21.54
73509;SHT30;61750;55.036;73.312;2023-04-15T11:27:22;12.40;21.33
73509;SHT30;61750;55.036;73.312;2023-04-15T11:29:53;12.41;20.19
73509;SHT30;61750;55.036;73.312;2023-04-15T11:32:20;12.61;19.68
73509;SHT30;61750;55.036;73.312;2023-04-15T11:34:46;11.90;20.15
73509;SHT30;61750;55.036;73.312;2023-04-15T11:37:15;12.37;19.74
73509;SHT30;61750;55.036;73.312;2023-04-15T11:39:42;12.67;19.60
73509;SHT30;61750;55.036;73.312;2023-04-15T11:42:17;11.89;21.03
73509;SHT30;61750;55.036;73.312;2023-04-15T11:44:49;12.16;20.69
73509;SHT30;61750;55.036;73.312;2023-04-15T11:47:23;12.42;21.01
73509;SHT30;61750;55.036;73.312;2023-04-15T11:49:50;12.54;20.21
73509;SHT30;61750;55.036;73.312;2023-04-15T11:52:21;12.74;20.21
73509;SHT30;61750;55.036;73.312;2023-04-15T11:55:45;13.18;19.46
73509;SHT30;61750;55.036;73.312;2023-04-15T11:58:21;13.09;18.38
73509;SHT30;61750;55.036;73.312;2023-04-15T12:00:51;13.27;18.63
73509;SHT30;61750;55.036;73.312;2023-04-15T12:03:20;13.12;18.73
73509;SHT30;61750;55.036;73.312;2023-04-15T12:06:06;13.30;18.58
73509;SHT30;61750;55.036;73.312;2023-04-15T12:11:44;13.91;18.78
73509;SHT30;61750;55.036;73.312;2023-04-15T12:16:45;12.26;19.31
73509;SHT30;61750;55.036;73.312;2023-04-15T12:19:15;11.28;20.42
73509;SHT30;61750;55.036;73.312;2023-04-15T12:21:46;10.68;21.27
73509;SHT30;61750;55.036;73.312;2023-04-15T12:24:13;10.57;21.21
73509;SHT30;61750;55.036;73.312;2023-04-15T12:26:47;10.92;21.20
73509;SHT30;61750;55.036;73.312;2023-04-15T12:29:15;11.31;20.82
73509;SHT30;61750;55.036;73.312;2023-04-15T12:32:11;11.80;20.44
73509;SHT30;61750;55.036;73.312;2023-04-15T12:34:40;11.96;20.71
73509;SHT30;61750;55.036;73.312;2023-04-15T12:37:08;11.98;20.49
73509;SHT30;61750;55.036;73.312;2023-04-15T12:39:37;12.37;20.26
73509;SHT30;61750;55.036;73.312;2023-04-15T12:42:04;12.06;21.15
73509;SHT30;61750;55.036;73.312;2023-04-15T12:44:31;12.24;21.33
73509;SHT30;61750;55.036;73.312;2023-04-15T12:46:58;12.33;20.49
73509;SHT30;61750;55.036;73.312;2023-04-15T12:49:25;12.21;20.97
73509;SHT30;61750;55.036;73.312;2023-04-15T12:51:53;10.91;21.43
73509;SHT30;61750;55.036;73.312;2023-04-15T12:54:21;9.24;23.05
73509;SHT30;61750;55.036;73.312;2023-04-15T12:56:48;8.88;23.18
73509;SHT30;61750;55.036;73.312;2023-04-15T12:59:16;8.28;23.31
73509;SHT30;61750;55.036;73.312;2023-04-15T13:01:46;7.79;23.91
73509;SHT30;61750;55.036;73.312;2023-04-15T13:04:13;7.93;23.73
73509;SHT30;61750;55.036;73.312;2023-04-15T13:06:39;7.62;23.38
73509;SHT30;61750;55.036;73.312;2023-04-15T13:09:16;7.01;24.19
73509;SHT30;61750;55.036;73.312;2023-04-15T13:11:52;6.90;24.30
73509;SHT30;61750;55.036;73.312;2023-04-15T13:14:19;7.37;23.83
73509;SHT30;61750;55.036;73.312;2023-04-15T13:16:45;7.34;24.21
73509;SHT30;61750;55.036;73.312;2023-04-15T13:19:11;6.77;24.12
73509;SHT30;61750;55.036;73.312;2023-04-15T13:21:43;5.97;24.48
73509;SHT30;61750;55.036;73.312;2023-04-15T13:24:15;5.48;24.82
73509;SHT30;61750;55.036;73.312;2023-04-15T13:26:41;4.83;25.63
73509;SHT30;61750;55.036;73.312;2023-04-15T13:29:07;4.32;26.10
73509;SHT30;61750;55.036;73.312;2023-04-15T13:31:33;3.63;27.00
73509;SHT30;61750;55.036;73.312;2023-04-15T13:33:59;3.13;27.67
73509;SHT30;61750;55.036;73.312;2023-04-15T13:36:26;2.66;28.19
73509;SHT30;61750;55.036;73.312;2023-04-15T13:38:52;2.06;29.29
73509;SHT30;61750;55.036;73.312;2023-04-15T13:41:18;1.56;30.45
73509;SHT30;61750;55.036;73.312;2023-04-15T13:43:50;1.08;31.43
73509;SHT30;61750;55.036;73.312;2023-04-15T13:46:16;0.67;32.13
73509;SHT30;61750;55.036;73.312;2023-04-15T13:48:42;0.45;33.00
73509;SHT30;61750;55.036;73.312;2023-04-15T13:51:09;0.22;33.19
73509;SHT30;61750;55.036;73.312;2023-04-15T13:53:35;0.06;32.92
73509;SHT30;61750;55.036;73.312;2023-04-15T13:56:01;-0.14;32.98
73509;SHT30;61750;55.036;73.312;2023-04-15T13:58:28;-0.32;33.62
73509;SHT30;61750;55.036;73.312;2023-04-15T14:00:54;-0.45;33.58
73509;SHT30;61750;55.036;73.312;2023-04-15T14:03:26;-0.60;33.98
73509;SHT30;61750;55.036;73.312;2023-04-15T14:05:52;-0.76;33.82
73509;SHT30;61750;55.036;73.312;2023-04-15T14:08:21;-0.87;34.11
73509;SHT30;61750;55.036;73.312;2023-04-15T14:10:52;-0.99;34.30
73509;SHT30;61750;55.036;73.312;2023-04-15T14:13:19;-1.07;34.39
73509;SHT30;61750;55.036;73.312;2023-04-15T14:15:45;-1.15;34.84
73509;SHT30;61750;55.036;73.312;2023-04-15T14:18:11;-1.23;35.04
73509;SHT30;61750;55.036;73.312;2023-04-15T14:20:37;-1.30;35.06
73509;SHT30;61750;55.036;73.312;2023-04-15T14:23:14;-1.37;35.83
73509;SHT30;61750;55.036;73.312;2023-04-15T14:25:50;-1.47;36.42
73509;SHT30;61750;55.036;73.312;2023-04-15T14:28:16;-1.50;36.89
73509;SHT30;61750;55.036;73.312;2023-04-15T14:30:42;-1.54;37.01
73509;SHT30;61750;55.036;73.312;2023-04-15T14:33:10;-1.52;36.98
73509;SHT30;61750;55.036;73.312;2023-04-15T14:35:37;-1.57;37.20
73509;SHT30;61750;55.036;73.312;2023-04-15T14:38:03;-1.64;37.88
73509;SHT30;61750;55.036;73.312;2023-04-15T14:40:37;-1.67;37.61
73509;SHT30;61750;55.036;73.312;2023-04-15T14:43:03;-1.71;37.57
73509;SHT30;61750;55.036;73.312;2023-04-15T14:45:37;-1.77;38.22
73509;SHT30;61750;55.036;73.312;2023-04-15T14:48:04;-1.86;38.40
73509;SHT30;61750;55.036;73.312;2023-04-15T14:50:37;-1.98;39.02
73509;SHT30;61750;55.036;73.312;2023-04-15T14:53:03;-1.99;39.16
73509;SHT30;61750;55.036;73.312;2023-04-15T14:55:37;-2.03;39.22
73509;SHT30;61750;55.036;73.312;2023-04-15T14:58:03;-2.07;39.29
73509;SHT30;61750;55.036;73.312;2023-04-15T15:00:41;-2.13;39.25
73509;SHT30;61750;55.036;73.312;2023-04-15T15:03:10;-2.14;39.09
73509;SHT30;61750;55.036;73.312;2023-04-15T15:05:40;-2.14;38.60
73509;SHT30;61750;55.036;73.312;2023-04-15T15:08:16;-2.14;38.62
73509;SHT30;61750;55.036;73.312;2023-04-15T15:10:45;-2.18;38.76
73509;SHT30;61750;55.036;73.312;2023-04-15T15:13:24;-2.22;38.76
73509;SHT30;61750;55.036;73.312;2023-04-15T15:16:01;-2.25;38.42
73509;SHT30;61750;55.036;73.312;2023-04-15T15:18:27;-2.25;38.42
73509;SHT30;61750;55.036;73.312;2023-04-15T15:20:53;-2.26;38.57
73509;SHT30;61750;55.036;73.312;2023-04-15T15:23:30;-2.32;38.80
73509;SHT30;61750;55.036;73.312;2023-04-15T15:25:57;-2.40;39.17
73509;SHT30;61750;55.036;73.312;2023-04-15T15:28:23;-2.47;39.57
73509;SHT30;61750;55.036;73.312;2023-04-15T15:30:49;-2.57;39.34
73509;SHT30;61750;55.036;73.312;2023-04-15T15:33:15;-2.61;39.67
73509;SHT30;61750;55.036;73.312;2023-04-15T15:35:43;-2.71;40.17
73509;SHT30;61750;55.036;73.312;2023-04-15T15:38:10;-2.64;39.86
73509;SHT30;61750;55.036;73.312;2023-04-15T15:40:37;-2.71;40.33
73509;SHT30;61750;55.036;73.312;2023-04-15T15:43:03;-2.78;40.49
73509;SHT30;61750;55.036;73.312;2023-04-15T15:45:37;-2.88;40.69
73509;SHT30;61750;55.036;73.312;2023-04-15T15:48:03;-2.88;40.80
73509;SHT30;61750;55.036;73.312;2023-04-15T15:50:37;-2.99;41.22
73509;SHT30;61750;55.036;73.312;2023-04-15T15:53:03;-3.05;41.37